createdAt,value
2023-03-21T00:00:43.708Z,97165.75
2023-03-21T00:03:12.783Z,97161.09
2023-03-21T00:05:43.103Z,97165.72
2023-03-21T00:08:12.342Z,97167.28
2023-03-21T00:10:43.488Z,97159.56
2023-03-21T00:13:14.351Z,97158.41
2023-03-21T00:16:04.267Z,97156.50
2023-03-21T00:18:33.218Z,97156.13
2023-03-21T00:21:35.531Z,97161.06
2023-03-21T00:23:48.645Z,97160.66
2023-03-21T00:26:17.298Z,97158.38
2023-03-21T00:28:46.265Z,97157.22
2023-03-21T00:31:12.831Z,97156.44
2023-03-21T00:33:39.566Z,97156.44
2023-03-21T00:36:10.564Z,97145.28
2023-03-21T00:38:40.987Z,97148.34
2023-03-21T00:41:23.309Z,97154.94
2023-03-21T00:44:04.144Z,97152.59
2023-03-21T00:46:44.052Z,97147.56
2023-03-21T00:49:16.098Z,97146.41
2023-03-21T00:51:45.397Z,97144.47
2023-03-21T00:54:12.831Z,97139.50
2023-03-21T00:56:39.531Z,97149.09
2023-03-21T00:59:08.134Z,97136.78
2023-03-21T01:01:34.916Z,97141.38
2023-03-21T01:04:13.599Z,97126.38
2023-03-21T01:06:42.454Z,97138.34
2023-03-21T01:09:14.050Z,97134.47
2023-03-21T01:11:45.248Z,97133.69
2023-03-21T01:14:23.800Z,97127.91
2023-03-21T01:16:56.075Z,97127.50
2023-03-21T01:19:44.273Z,97122.44
2023-03-21T01:22:14.889Z,97129.00
2023-03-21T01:24:52.416Z,97135.88
2023-03-21T01:27:22.820Z,97137.81
2023-03-21T01:29:49.660Z,97132.00
2023-03-21T01:32:20.890Z,97138.53
2023-03-21T01:34:47.446Z,97133.16
2023-03-21T01:37:17.865Z,97127.75
2023-03-21T01:39:44.452Z,97123.13
2023-03-21T01:42:14.661Z,97123.16
2023-03-21T01:45:07.201Z,97126.97
2023-03-21T01:47:36.164Z,97125.00
2023-03-21T01:50:04.413Z,97120.78
2023-03-21T01:52:41.698Z,97121.56
2023-03-21T01:55:12.743Z,97120.41
2023-03-21T01:58:02.425Z,97119.63
2023-03-21T02:00:32.113Z,97115.44
2023-03-21T02:03:11.499Z,97113.13
2023-03-21T02:06:03.286Z,97111.22
2023-03-21T02:08:39.475Z,97113.91
2023-03-21T02:11:07.807Z,97117.66
2023-03-21T02:13:42.114Z,97118.09
2023-03-21T02:16:21.833Z,97110.41
2023-03-21T02:18:48.380Z,97106.22
2023-03-21T02:21:53.127Z,97115.81
2023-03-21T02:24:32.466Z,97111.97
2023-03-21T02:27:18.933Z,97109.63
2023-03-21T02:30:13.070Z,97108.91
2023-03-21T02:33:31.630Z,97105.75
2023-03-21T02:36:14.423Z,97101.47
2023-03-21T02:38:43.988Z,97097.19
2023-03-21T02:41:19.539Z,97101.75
2023-03-21T02:43:55.563Z,97102.50
2023-03-21T02:46:45.571Z,97100.56
2023-03-21T02:49:31.463Z,97097.97
2023-03-21T02:52:05.500Z,97095.31
2023-03-21T02:54:48.409Z,97094.16
2023-03-21T02:57:19.432Z,97092.97
2023-03-21T02:59:55.697Z,97095.63
2023-03-21T03:02:27.446Z,97096.72
2023-03-21T03:04:56.321Z,97093.25
2023-03-21T03:07:31.552Z,97091.69
2023-03-21T03:10:16.376Z,97094.41
2023-03-21T03:13:00.966Z,97094.38
2023-03-21T03:15:59.911Z,97100.81
2023-03-21T03:18:54.426Z,97100.91
2023-03-21T03:21:37.991Z,97096.66
2023-03-21T03:24:11.852Z,97096.94
2023-03-21T03:26:48.251Z,97093.09
2023-03-21T03:29:20.862Z,97093.47
2023-03-21T03:32:01.904Z,97097.69
2023-03-21T03:34:40.790Z,97096.94
2023-03-21T03:37:13.559Z,97098.47
2023-03-21T03:39:49.919Z,97100.34
2023-03-21T03:42:30.411Z,97101.06
2023-03-21T03:44:57.602Z,97106.78
2023-03-21T03:47:41.951Z,97101.34
2023-03-21T03:50:44.604Z,97100.63
2023-03-21T03:53:25.810Z,97095.19
2023-03-21T03:55:58.076Z,97096.69
2023-03-21T03:58:39.546Z,97100.09
2023-03-21T04:01:14.221Z,97096.63
2023-03-21T04:03:50.210Z,97095.91
2023-03-21T04:06:22.285Z,97095.50
2023-03-21T04:08:48.893Z,97097.50
2023-03-21T04:11:16.313Z,97104.50
2023-03-21T04:13:50.969Z,97097.25
2023-03-21T04:16:17.592Z,97101.44
2023-03-21T04:18:44.219Z,97096.84
2023-03-21T04:21:12.909Z,97080.66
2023-03-21T04:23:42.633Z,97083.75
2023-03-21T04:26:13.093Z,97084.03
2023-03-21T04:28:41.894Z,97081.25
2023-03-21T04:31:24.456Z,97078.94
2023-03-21T04:33:55.906Z,97084.66
2023-03-21T04:36:27.466Z,97080.81
2023-03-21T04:38:54.976Z,97081.16
2023-03-21T04:41:21.614Z,97078.03
2023-03-21T04:43:52.417Z,97082.19
2023-03-21T04:46:21.890Z,97089.41
2023-03-21T04:48:51.418Z,97081.75
2023-03-21T04:51:20.323Z,97086.84
2023-03-21T04:53:49.504Z,97085.75
2023-03-21T04:56:18.360Z,97079.16
2023-03-21T04:58:50.248Z,97078.28
2023-03-21T05:01:20.240Z,97089.00
2023-03-21T05:03:46.918Z,97077.13
2023-03-21T05:06:13.525Z,97081.41
2023-03-21T05:08:41.523Z,97077.53
2023-03-21T05:11:08.074Z,97091.69
2023-03-21T05:13:34.651Z,97093.13
2023-03-21T05:16:01.273Z,97093.78
2023-03-21T05:18:34.874Z,97085.16
2023-03-21T05:21:05.138Z,97087.06
2023-03-21T05:23:31.792Z,97089.72
2023-03-21T05:26:00.762Z,97089.50
2023-03-21T05:28:36.183Z,97089.22
2023-03-21T05:31:06.223Z,97092.72
2023-03-21T05:33:35.060Z,97093.78
2023-03-21T05:36:04.330Z,97088.91
2023-03-21T05:38:31.234Z,97093.41
2023-03-21T05:41:00.380Z,97086.06
2023-03-21T05:43:29.555Z,97084.22
2023-03-21T05:45:59.238Z,97095.03
2023-03-21T05:48:25.874Z,97089.72
2023-03-21T05:50:54.858Z,97095.50
2023-03-21T05:53:23.483Z,97089.25
2023-03-21T05:55:50.117Z,97087.88
2023-03-21T05:58:16.669Z,97092.00
2023-03-21T06:00:43.226Z,97078.69
2023-03-21T06:03:12.284Z,97086.13
2023-03-21T06:05:39.055Z,97092.72
2023-03-21T06:08:06.161Z,97088.53
2023-03-21T06:10:34.931Z,97089.44
2023-03-21T06:13:03.698Z,97086.47
2023-03-21T06:15:32.922Z,97084.56
2023-03-21T06:17:59.575Z,97087.22
2023-03-21T06:20:26.382Z,97084.19
2023-03-21T06:22:55.211Z,97093.34
2023-03-21T06:25:21.903Z,97098.44
2023-03-21T06:27:48.430Z,97103.13
2023-03-21T06:30:15.780Z,97103.16
2023-03-21T06:32:42.339Z,97098.28
2023-03-21T06:35:09.410Z,97093.31
2023-03-21T06:37:35.962Z,97091.84
2023-03-21T06:40:02.738Z,97096.06
2023-03-21T06:42:30.106Z,97098.06
2023-03-21T06:44:56.724Z,97089.97
2023-03-21T06:47:28.086Z,97094.56
2023-03-21T06:49:57.892Z,97086.59
2023-03-21T06:52:29.168Z,97086.66
2023-03-21T06:54:56.312Z,97095.88
2023-03-21T06:57:27.554Z,97103.25
2023-03-21T06:59:56.371Z,97100.16
2023-03-21T07:02:25.227Z,97104.78
2023-03-21T07:04:51.809Z,97105.22
2023-03-21T07:07:18.416Z,97103.72
2023-03-21T07:09:44.998Z,97101.06
2023-03-21T07:12:11.567Z,97100.66
2023-03-21T07:14:40.523Z,97100.28
2023-03-21T07:17:09.298Z,97102.56
2023-03-21T07:19:38.201Z,97102.13
2023-03-21T07:22:07.116Z,97091.63
2023-03-21T07:24:33.732Z,97099.59
2023-03-21T07:27:00.312Z,97093.78
2023-03-21T07:29:29.814Z,97091.38
2023-03-21T07:31:58.767Z,97093.94
2023-03-21T07:34:27.354Z,97099.59
2023-03-21T07:36:53.971Z,97094.78
2023-03-21T07:39:26.141Z,97093.53
2023-03-21T07:41:59.974Z,97096.47
2023-03-21T07:44:27.194Z,97091.28
2023-03-21T07:46:56.174Z,97091.50
2023-03-21T07:49:25.038Z,97088.22
2023-03-21T07:51:56.491Z,97087.50
2023-03-21T07:54:25.586Z,97087.13
2023-03-21T07:56:54.385Z,97100.03
2023-03-21T07:59:21.041Z,97092.69
2023-03-21T08:01:47.664Z,97093.06
2023-03-21T08:04:16.477Z,97092.69
2023-03-21T08:06:43.067Z,97095.84
2023-03-21T08:09:09.924Z,97096.50
2023-03-21T08:11:36.859Z,97099.88
2023-03-21T08:14:03.423Z,97092.06
2023-03-21T08:16:32.350Z,97098.09
2023-03-21T08:19:04.186Z,97095.56
2023-03-21T08:21:33.747Z,97095.13
2023-03-21T08:24:00.410Z,97090.47
2023-03-21T08:26:27.067Z,97088.50
2023-03-21T08:28:53.663Z,97090.25
2023-03-21T08:31:22.372Z,97092.19
2023-03-21T08:33:54.306Z,97091.47
2023-03-21T08:36:24.139Z,97094.63
2023-03-21T08:38:54.253Z,97095.72
2023-03-21T08:41:22.181Z,97091.25
2023-03-21T08:43:49.301Z,97086.72
2023-03-21T08:46:18.124Z,97091.22
2023-03-21T08:48:44.719Z,97081.72
2023-03-21T08:51:11.305Z,97089.28
2023-03-21T08:53:41.560Z,97088.50
2023-03-21T08:56:08.601Z,97088.03
2023-03-21T08:58:35.249Z,97086.06
2023-03-21T09:01:05.004Z,97086.00
2023-03-21T09:03:31.610Z,97087.22
2023-03-21T09:05:59.059Z,97080.75
2023-03-21T09:08:25.672Z,97083.38
2023-03-21T09:10:56.246Z,97078.41
2023-03-21T09:13:25.252Z,97078.38
2023-03-21T09:15:53.057Z,97082.22
2023-03-21T09:18:38.671Z,97087.38
2023-03-21T09:21:12.798Z,97079.84
2023-03-21T09:23:39.868Z,97080.25
2023-03-21T09:26:10.498Z,97076.31
2023-03-21T09:28:40.603Z,97082.63
2023-03-21T09:31:11.908Z,97078.53
2023-03-21T09:33:43.919Z,97072.53
2023-03-21T09:36:15.497Z,97074.47
2023-03-21T09:38:45.585Z,97074.28
2023-03-21T09:41:52.816Z,97083.34
2023-03-21T09:44:37.912Z,97076.16
2023-03-21T09:47:29.003Z,97075.22
2023-03-21T09:50:13.475Z,97068.72
2023-03-21T09:52:47.941Z,97060.22
2023-03-21T09:55:26.334Z,97065.59
2023-03-21T09:58:04.361Z,97066.31
2023-03-21T10:00:40.202Z,97070.47
2023-03-21T10:03:20.136Z,97065.44
2023-03-21T10:05:57.540Z,97064.44
2023-03-21T10:08:37.677Z,97061.47
2023-03-21T10:11:27.382Z,97058.78
2023-03-21T10:14:23.300Z,97054.56
2023-03-21T10:16:59.582Z,97053.91
2023-03-21T10:19:29.623Z,97052.78
2023-03-21T10:22:01.329Z,97052.69
2023-03-21T10:24:36.838Z,97058.03
2023-03-21T10:27:05.363Z,97053.81
2023-03-21T10:29:43.632Z,97055.66
2023-03-21T10:32:15.378Z,97050.00
2023-03-21T10:34:45.028Z,97050.59
2023-03-21T10:37:14.044Z,97041.63
2023-03-21T10:39:48.442Z,97034.28
2023-03-21T10:42:28.566Z,97037.00
2023-03-21T10:45:02.396Z,97029.84
2023-03-21T10:47:34.284Z,97024.44
2023-03-21T10:50:16.021Z,97033.03
2023-03-21T10:52:55.658Z,97027.34
2023-03-21T10:55:29.141Z,97021.66
2023-03-21T10:58:02.871Z,97011.31
2023-03-21T11:00:37.090Z,97007.88
2023-03-21T11:03:06.904Z,97008.75
2023-03-21T11:05:42.410Z,96999.22
2023-03-21T11:08:18.638Z,96999.41
2023-03-21T11:10:59.618Z,97001.78
2023-03-21T11:13:33.540Z,96999.16
2023-03-21T11:16:12.430Z,96994.19
2023-03-21T11:18:50.088Z,96992.44
2023-03-21T11:21:17.759Z,96990.53
2023-03-21T11:23:52.928Z,96991.97
2023-03-21T11:26:33.251Z,96997.09
2023-03-21T11:29:02.772Z,96983.00
2023-03-21T11:31:40.186Z,96983.63
2023-03-21T11:34:24.149Z,96979.44
2023-03-21T11:36:51.189Z,96973.38
2023-03-21T11:39:44.463Z,96974.38
2023-03-21T11:42:29.285Z,96968.53
2023-03-21T11:45:05.248Z,96966.78
2023-03-21T11:47:34.245Z,96969.69
2023-03-21T11:50:05.212Z,96961.03
2023-03-21T11:52:41.608Z,96960.41
2023-03-21T11:55:19.679Z,96946.75
2023-03-21T11:58:14.879Z,96942.91
2023-03-21T12:00:44.302Z,96942.03
2023-03-21T12:03:47.086Z,96933.00
2023-03-21T12:06:31.268Z,96929.94
2023-03-21T12:09:18.604Z,96928.59
2023-03-21T12:12:08.949Z,96923.75
2023-03-21T12:14:44.494Z,96923.50
2023-03-21T12:17:20.011Z,96921.81
2023-03-21T12:20:00.957Z,96916.38
2023-03-21T12:22:27.471Z,96913.22
2023-03-21T12:24:58.720Z,96906.94
2023-03-21T12:27:50.975Z,96900.63
2023-03-21T12:30:29.730Z,96903.38
2023-03-21T12:33:06.768Z,96892.13
2023-03-21T12:35:44.560Z,96893.38
2023-03-21T12:38:28.519Z,96889.09
2023-03-21T12:41:20.484Z,96880.47
2023-03-21T12:43:49.968Z,96883.13
2023-03-21T12:46:40.567Z,96878.94
2023-03-21T12:49:19.300Z,96871.97
2023-03-21T12:51:54.398Z,96867.63
2023-03-21T12:54:31.469Z,96860.78
2023-03-21T12:57:17.883Z,96857.88
2023-03-21T12:59:51.494Z,96853.03
2023-03-21T13:02:32.088Z,96859.28
2023-03-21T13:05:14.162Z,96846.94
2023-03-21T13:07:44.011Z,96849.38
2023-03-21T13:10:16.737Z,96852.53
2023-03-21T13:13:10.090Z,96848.00
2023-03-21T13:15:48.871Z,96848.00
2023-03-21T13:18:34.307Z,96845.28
2023-03-21T13:21:13.166Z,96849.13
2023-03-21T13:23:56.037Z,96843.22
2023-03-21T13:26:33.619Z,96841.75
2023-03-21T13:29:02.716Z,96842.03
2023-03-21T13:31:33.911Z,96844.28
2023-03-21T13:34:09.444Z,96828.88
2023-03-21T13:36:39.687Z,96827.34
2023-03-21T13:39:26.480Z,96834.94
2023-03-21T13:41:54.722Z,96828.69
2023-03-21T13:44:43.512Z,96833.88
2023-03-21T13:47:36.941Z,96830.69
2023-03-21T13:50:21.495Z,96821.81
2023-03-21T13:53:03.476Z,96818.78
2023-03-21T13:55:44.609Z,96823.22
2023-03-21T13:58:34.902Z,96830.19
2023-03-21T14:01:10.627Z,96824.72
2023-03-21T14:03:40.022Z,96825.19
2023-03-21T14:06:07.110Z,96818.63
2023-03-21T14:08:37.664Z,96814.97
2023-03-21T14:11:12.320Z,96815.13
2023-03-21T14:13:50.770Z,96812.19
2023-03-21T14:16:25.574Z,96814.84
2023-03-21T14:18:56.458Z,96816.06
2023-03-21T14:21:29.529Z,96818.19
2023-03-21T14:23:57.563Z,96814.97
2023-03-21T14:26:25.685Z,96805.88
2023-03-21T14:28:55.292Z,96801.00
2023-03-21T14:31:21.957Z,96809.03
2023-03-21T14:33:54.626Z,96809.78
2023-03-21T14:36:27.821Z,96797.28
2023-03-21T14:38:57.755Z,96795.47
2023-03-21T14:41:29.232Z,96799.28
2023-03-21T14:44:11.123Z,96793.19
2023-03-21T14:46:42.762Z,96796.41
2023-03-21T14:49:12.416Z,96789.50
2023-03-21T14:51:39.245Z,96788.78
2023-03-21T14:54:06.574Z,96791.56
2023-03-21T14:56:38.456Z,96787.31
2023-03-21T14:59:05.119Z,96795.53
2023-03-21T15:01:34.784Z,96789.47
2023-03-21T15:04:06.565Z,96793.22
2023-03-21T15:06:52.402Z,96787.72
2023-03-21T15:09:20.794Z,96797.38
2023-03-21T15:11:53.829Z,96786.69
2023-03-21T15:14:27.058Z,96780.44
2023-03-21T15:16:55.377Z,96783.16
2023-03-21T15:19:30.784Z,96778.75
2023-03-21T15:22:03.300Z,96774.22
2023-03-21T15:24:39.653Z,96772.53
2023-03-21T15:27:17.483Z,96772.25
2023-03-21T15:29:45.156Z,96771.44
2023-03-21T15:32:19.378Z,96766.50
2023-03-21T15:34:49.327Z,96769.81
2023-03-21T15:37:25.726Z,96770.47
2023-03-21T15:40:05.970Z,96774.72
2023-03-21T15:42:37.435Z,96775.34
2023-03-21T15:45:17.326Z,96782.50
2023-03-21T15:48:26.231Z,96779.41
2023-03-21T15:51:01.658Z,96772.16
2023-03-21T15:53:32.744Z,96772.44
2023-03-21T15:56:04.129Z,96775.03
2023-03-21T15:58:43.994Z,96771.38
2023-03-21T16:01:20.036Z,96775.03
2023-03-21T16:03:52.392Z,96771.22
2023-03-21T16:06:25.654Z,96771.81
2023-03-21T16:09:05.565Z,96778.34
2023-03-21T16:11:53.176Z,96777.00
2023-03-21T16:14:21.534Z,96769.22
2023-03-21T16:16:49.507Z,96777.25
2023-03-21T16:19:16.966Z,96771.97
2023-03-21T16:21:43.814Z,96766.31
2023-03-21T16:24:11.732Z,96768.72
2023-03-21T16:26:43.706Z,96775.69
2023-03-21T16:29:19.553Z,96772.06
2023-03-21T16:31:49.398Z,96773.09
2023-03-21T16:34:18.377Z,96770.97
2023-03-21T16:36:45.000Z,96771.88
2023-03-21T16:39:22.570Z,96780.81
2023-03-21T16:41:50.579Z,96775.69
2023-03-21T16:44:20.176Z,96779.31
2023-03-21T16:46:47.353Z,96780.66
2023-03-21T16:49:24.962Z,96785.19
2023-03-21T16:51:52.090Z,96784.59
2023-03-21T16:54:18.749Z,96789.41
2023-03-21T16:56:55.980Z,96791.94
2023-03-21T16:59:22.669Z,96782.00
2023-03-21T17:01:50.151Z,96795.94
2023-03-21T17:04:18.362Z,96789.97
2023-03-21T17:06:49.375Z,96797.94
2023-03-21T17:09:17.389Z,96796.97
2023-03-21T17:11:44.472Z,96796.03
2023-03-21T17:14:13.014Z,96806.44
2023-03-21T17:16:43.309Z,96799.72
2023-03-21T17:19:12.852Z,96798.31
2023-03-21T17:21:40.471Z,96798.25
2023-03-21T17:24:11.871Z,96806.78
2023-03-21T17:26:38.537Z,96802.47
2023-03-21T17:29:07.560Z,96804.13
2023-03-21T17:31:36.981Z,96795.63
2023-03-21T17:34:04.556Z,96806.75
2023-03-21T17:36:36.617Z,96807.22
2023-03-21T17:39:06.095Z,96808.44
2023-03-21T17:41:37.894Z,96809.19
2023-03-21T17:44:04.592Z,96818.00
2023-03-21T17:46:38.767Z,96817.16
2023-03-21T17:49:06.730Z,96814.66
2023-03-21T17:51:35.844Z,96816.75
2023-03-21T17:54:02.482Z,96819.91
2023-03-21T17:56:32.697Z,96825.00
2023-03-21T17:59:05.772Z,96818.81
2023-03-21T18:01:35.505Z,96824.13
2023-03-21T18:04:05.214Z,96827.84
2023-03-21T18:06:37.507Z,96830.88
2023-03-21T18:09:10.978Z,96832.59
2023-03-21T18:11:39.208Z,96824.22
2023-03-21T18:14:17.511Z,96819.63
2023-03-21T18:16:47.949Z,96828.31
2023-03-21T18:19:14.900Z,96827.56
2023-03-21T18:21:44.873Z,96827.03
2023-03-21T18:24:14.144Z,96829.19
2023-03-21T18:26:41.214Z,96828.53
2023-03-21T18:32:06.463Z,96831.78
2023-03-21T18:34:38.851Z,96833.06
2023-03-21T18:37:08.189Z,96827.41
2023-03-21T18:39:39.922Z,96834.19
2023-03-21T18:42:07.166Z,96834.38
2023-03-21T18:44:45.566Z,96838.28
2023-03-21T18:47:15.125Z,96836.13
2023-03-21T18:50:12.504Z,96846.28
2023-03-21T18:52:28.662Z,96847.13
2023-03-21T18:54:55.518Z,96844.25
2023-03-21T18:57:38.637Z,96844.19
2023-03-21T19:00:17.528Z,96852.28
2023-03-21T19:02:50.637Z,96852.38
2023-03-21T19:05:19.989Z,96845.47
2023-03-21T19:07:51.611Z,96841.41
2023-03-21T19:10:24.960Z,96852.59
2023-03-21T19:12:53.018Z,96855.56
2023-03-21T19:15:24.058Z,96854.50
2023-03-21T19:20:48.087Z,96855.34
2023-03-21T19:23:18.702Z,96862.31
2023-03-21T19:25:45.379Z,96858.75
2023-03-21T19:28:14.464Z,96857.97
2023-03-21T19:30:49.108Z,96861.97
2023-03-21T19:33:20.108Z,96857.31
2023-03-21T19:36:08.945Z,96856.38
2023-03-21T19:38:37.751Z,96857.13
2023-03-21T19:41:04.428Z,96851.13
2023-03-21T19:43:33.368Z,96845.69
2023-03-21T19:46:05.208Z,96856.22
2023-03-21T19:48:32.729Z,96854.28
2023-03-21T19:51:26.974Z,96857.16
2023-03-21T19:53:49.005Z,96859.63
2023-03-21T19:56:22.269Z,96863.88
2023-03-21T19:58:51.685Z,96857.75
2023-03-21T20:01:18.374Z,96868.09
2023-03-21T20:03:44.952Z,96867.78
2023-03-21T20:06:13.760Z,96865.19
2023-03-21T20:09:13.643Z,96866.38
2023-03-21T20:11:32.352Z,96868.56
2023-03-21T20:14:03.084Z,96859.78
2023-03-21T20:16:35.784Z,96863.00
2023-03-21T20:19:08.724Z,96863.72
2023-03-21T20:21:47.617Z,96862.72
2023-03-21T20:24:16.857Z,96862.31
2023-03-21T20:26:46.501Z,96858.31
2023-03-21T20:32:02.274Z,96857.97
2023-03-21T20:34:30.448Z,96856.81
2023-03-21T20:37:00.032Z,96865.53
2023-03-21T20:39:33.882Z,96862.63
2023-03-21T20:42:03.940Z,96860.03
2023-03-21T20:47:19.997Z,96860.09
2023-03-21T20:49:46.578Z,96856.63
2023-03-21T20:55:08.995Z,96855.44
2023-03-21T20:57:38.566Z,96854.69
2023-03-21T21:00:13.619Z,96850.44
2023-03-21T21:02:41.471Z,96846.47
2023-03-21T21:05:25.384Z,96844.47
2023-03-21T21:07:57.367Z,96852.53
2023-03-21T21:10:26.917Z,96850.25
2023-03-21T21:12:56.188Z,96849.06
2023-03-21T21:15:25.328Z,96853.31
2023-03-21T21:18:06.442Z,96853.31
2023-03-21T21:20:40.189Z,96850.50
2023-03-21T21:23:09.712Z,96846.41
2023-03-21T21:25:37.562Z,96841.06
2023-03-21T21:28:09.209Z,96844.81
2023-03-21T21:30:39.341Z,96847.88
2023-03-21T21:33:06.162Z,96851.38
2023-03-21T21:35:35.945Z,96854.06
2023-03-21T21:38:04.754Z,96852.13
2023-03-21T21:40:34.240Z,96848.31
2023-03-21T21:43:03.800Z,96857.63
2023-03-21T21:45:32.979Z,96849.84
2023-03-21T21:48:02.170Z,96849.06
2023-03-21T21:50:31.352Z,96848.31
2023-03-21T21:52:57.937Z,96850.19
2023-03-21T21:55:24.525Z,96845.53
2023-03-21T21:57:53.139Z,96850.59
2023-03-21T22:00:20.358Z,96845.44
2023-03-21T22:02:47.188Z,96848.16
2023-03-21T22:05:17.120Z,96848.31
2023-03-21T22:07:45.903Z,96858.38
2023-03-21T22:10:12.546Z,96849.06
2023-03-21T22:12:41.493Z,96864.63
2023-03-21T22:15:11.954Z,96863.09
2023-03-21T22:17:42.294Z,96865.06
2023-03-21T22:20:16.826Z,96865.91
2023-03-21T22:22:43.536Z,96871.78
2023-03-21T22:25:14.862Z,96857.47
2023-03-21T22:27:42.176Z,96863.84
2023-03-21T22:30:13.809Z,96861.25
2023-03-21T22:32:44.789Z,96868.19
2023-03-21T22:35:14.314Z,96860.78
2023-03-21T22:37:42.206Z,96867.28
2023-03-21T22:40:13.220Z,96864.44
2023-03-21T22:42:46.053Z,96870.97
2023-03-21T22:45:14.624Z,96857.81
2023-03-21T22:47:43.787Z,96866.88
2023-03-21T22:50:13.111Z,96868.03
2023-03-21T22:52:41.950Z,96872.50
2023-03-21T22:55:12.678Z,96875.31
2023-03-21T22:57:39.274Z,96866.41
2023-03-21T23:00:13.260Z,96862.31
2023-03-21T23:02:41.408Z,96863.25
2023-03-21T23:05:10.626Z,96854.91
2023-03-21T23:07:39.626Z,96858.47
2023-03-21T23:10:12.079Z,96866.16
2023-03-21T23:12:41.266Z,96865.16
2023-03-21T23:15:09.096Z,96865.84
2023-03-21T23:17:38.569Z,96863.91
2023-03-21T23:20:07.878Z,96858.25
2023-03-21T23:22:40.048Z,96855.78
2023-03-21T23:25:09.369Z,96856.72
2023-03-21T23:27:36.017Z,96861.19
2023-03-21T23:30:04.977Z,96850.28
2023-03-21T23:32:31.572Z,96853.59
2023-03-21T23:34:58.667Z,96855.59
2023-03-21T23:37:26.167Z,96849.63
2023-03-21T23:39:55.385Z,96855.88
2023-03-21T23:42:23.243Z,96857.63
2023-03-21T23:44:49.849Z,96858.34
2023-03-21T23:47:16.765Z,96855.41
2023-03-21T23:49:45.312Z,96855.47
2023-03-21T23:52:12.039Z,96857.63
2023-03-21T23:54:40.766Z,96860.38
2023-03-21T23:57:07.355Z,96849.84
2023-03-21T23:59:34.081Z,96847.91
